Etusivu
METAR-TAF:

METAR-TAF

Lentoasemat :

Perry Lefors Field

Pampa, Texas, Yhdysvallat

Leveyspiiri: 35-36-46N, Pituuspiiri: 100-59-46W, korkeus merenpinnasta: 989 m

Tämänhetkinen sää

Tämä raportti tehtiin 22 minuuttia sitten, kello 10.55 UTC
Tuuli 8 kn lännestä/luoteesta
Lämpötila 2°C
Kosteus 87%
Ilmanpaine 1025 hPa
Näkyvyys: 16.1 km
selkeää

METAR: KPPA 061055Z AUTO 30008KT 10SM CLR 02/00 A3027 RMK AO2 T00170004

Aika: 05:17 (11:17 UTC)


TAF: puuttuu

Säähavainnot ja -ennusteet yli 4000 lentoasemalta (METAR- ja TAF-raportit).

Käytössä olevat sääasemat on merkitty karttaan keltaisilla ja punaisilla pisteillä.

Aseta hiiri pisteen päälle nähdäksesi sääaseman nimen.

Klikkaa sitten nähdäksesi säähavainnot ja -ennusteet.

Kartan vaihtaminen: klikkaa mustalla rastilla varustettuja vihreitä pisteitä, niin voit zoomata sisään; viivalla varustettua vihreää pistettä, niin voit zoomata ulos tai vihreitä nuolia, niin pääset viereisille kartoille.


METAR-TAF: